Logo AVAMET
Benvolgut visitant, si us plau, ingressa Recuperar contrasenya

Inforatge Piles

Dades diàries. Acumulats / Últims 30 dies disponibles

Data Temperatura (°C) Humitat rel. (%) Pressió rel. (hPa) Vent (km/h) Precipitació
Mínima Mitjana Màxima Amplitud
tèrmica
Mínima Mitjana Màxima Mínima Mitjana Màxima Predom. Mitjana Ràfega
màxima
Total
(mm)
Índex-n
Mínima Mitjana Màxima Mínima Mitjana Màxima n
0 a 1
P0 max
mm 5'
Dades mensuals acumulades fins l'últim dia disponible
11/2019 9,6 15,3 21,7 18,4 17,1 21,8 27,4 17,8 29 53 73 1.006 1.015 1.024   11,7 75,6 0,0
Dades anuals acumulades fins l'últim dia disponible
2019 3,3 16,0 26,9 19,5 10,7 23,5 38,2 34,9 15 69 99 997 1.021 1.039   8,6 85,4 410,8
Últims 30 dies disponibles
11-11-2019 9,6     13,9     17,8 8,2 41 52 59 1.014 1.017 1.018 W 10,1 32,2 0,0
10-11-2019 11,3     14,3     17,1 5,8 40 55 73 1.014 1.016 1.018 W 13,0 41,8 0,0
09-11-2019 12,3     15,3     19,2 6,9 32 48 68 1.017 1.021 1.023 W 11,3 40,2 0,0
08-11-2019 11,2     14,4     17,2 6,0 39 47 61 1.014 1.017 1.020 W 13,0 46,7 0,0
07-11-2019 13,6     17,3     21,7 8,1 29 53 65 1.011 1.014 1.017 WSW 9,2 43,5 0,0
06-11-2019 13,6     17,2     21,6 8,0 37 51 62 1.015 1.017 1.018 W 10,8 32,2 0,0
05-11-2019 16,0     18,6     21,1 5,1 41 52 62 1.009 1.013 1.016 W 12,2 54,7 0,0
04-11-2019 19,5     21,9     25,3 5,8 44 54 63 1.010 1.013 1.015 W 14,3 61,2 0,0
03-11-2019 19,7     22,2     24,7 5,0 46 52 61 1.006 1.009 1.014 W 14,2 75,6 0,0
02-11-2019 21,7     23,8     27,2 5,5 44 57 66 1.008 1.013 1.017 W 10,5 35,4 0,0
01-11-2019 20,3     23,8     27,4 7,1 53 63 73 1.017 1.021 1.024 W 10,3 40,2 0,0
31-10-2019 20,9     23,1     27,2 6,3 49 62 68 1.023 1.024 1.025 SO 8,6 33,8 0,0
30-10-2019 16,3     20,2     23,9 7,6 58 74 87 1.023 1.024 1.025 WSW 4,7 19,3 0,0
29-10-2019 15,6     19,1     23,5 7,9 63 81 88 1.019 1.020 1.023 WSW 4,7 20,9 0,0
28-10-2019 15,1     18,0     21,5 6,4 70 85 91 1.020 1.021 1.024 WSW 4,7 16,1 0,0
27-10-2019 15,0     17,9     22,1 7,1 72 85 91 1.024 1.025 1.026 WSW 6,4 20,9 0,0
26-10-2019 14,3     18,0     21,0 6,7 64 75 88 1.024 1.025 1.026 WSW 6,0 16,1 0,0
25-10-2019 15,2     18,6     22,7 7,5 48 65 76 1.024 1.025 1.027 WSW 7,2 24,1 0,0
24-10-2019 12,2     17,1     22,2 10,0 46 62 76 1.015 1.019 1.025 W 9,2 29,0 0,0
23-10-2019 12,7     15,7     20,2 7,5 46 67 85 1.010 1.012 1.016 WSW 6,4 32,2 0,0
22-10-2019 13,4     14,8     16,1 2,7 77 90 97 1.009 1.014 1.021 W 7,6 30,6 71,8 0,42 2,50
21-10-2019 14,0     15,7     17,6 3,6 61 72 85 1.019 1.021 1.023 W 6,3 24,1 0,0
20-10-2019 16,6     19,6     21,9 5,3 55 67 76 1.008 1.013 1.019 W 5,1 30,6 0,2
19-10-2019 18,8     22,7     27,1 8,3 50 58 71 1.010 1.013 1.017 WSW 7,7 38,6 0,0
18-10-2019 18,4     22,7     28,3 9,9 46 60 74 1.017 1.019 1.021 WSW 5,3 24,1 0,0
17-10-2019 15,9     22,2     28,4 12,5 29 45 55 1.019 1.020 1.022 WSW 6,1 24,1 0,0
16-10-2019 15,1     19,4     24,9 9,8 33 50 65 1.020 1.022 1.025 WSW 8,4 24,1 0,0
15-10-2019 16,1     19,6     24,4 8,3 30 48 66 1.018 1.022 1.024 W 10,3 48,3 0,0
14-10-2019 19,1     22,2     23,9 4,8 59 86 94 1.015 1.017 1.021 E 4,2 30,6 5,6 0,54 1,60
13-10-2019 19,5     22,3     24,6 5,1 78 86 91 1.020 1.021 1.022 WSW 6,6 19,3 0,0
Últims 13 mesos disponibles
10/2019 12,2 17,3 21,2 20,7 16,1 24,5 30,9 18,7 45 71 90 1.012 1.020 1.025 WSW 6,6 48,3 77,6
09/2019 14,9 20,9 23,4 24,0 23,2 27,4 34,9 20,0 50 78 92 1.014 1.021 1.027 S 8,7 85,4 72,4
08/2019 18,9 23,3 26,9 26,6 26,6 30,6 38,2 19,3 59 75 85 1.014 1.019 1.024 SSE 8,6 55,6 18,0
07/2019 21,9 23,5 26,2 26,7 26,6 30,3 37,8 15,9 44 74 85 1.009 1.017 1.025 SSE 9,0 51,9 0,2
06/2019 14,2 18,6 22,4 22,6 20,2 26,8 33,0 18,8 41 71 87 1.012 1.019 1.025 SSE 9,0 48,3 0,0
05/2019 10,9 15,4 21,9 19,1 17,7 23,6 31,2 20,3 50 71 84 1.009 1.019 1.028 SSE 8,6 51,9 7,0
04/2019 8,7 12,4 15,3 15,8 14,8 19,6 28,2 19,5 42 70 94 1.003 1.016 1.029 S 10,0 69,3 191,8
03/2019 8,1 10,4 15,0 14,8 11,8 19,1 28,4 20,3 32 64 92 1.015 1.026 1.033 S 7,7 46,7 41,8
02/2019 5,8 8,8 11,9 12,7 12,9 16,8 22,4 16,6 35 65 83 999 1.028 1.037 SSO 7,9 75,9 0,0
01/2019 3,3 8,6 13,8 12,2 10,7 16,5 21,1 17,8 42 58 77 1.006 1.022 1.034 SSO 8,7 64,8 2,0
12/2018 7,2 10,4 14,7 14,0 14,4 18,3 24,4 17,2 53 69 88 1.012 1.028 1.034 SSO 7,1 48,3 22,8
11/2018 9,1 12,5 16,2 15,4 16,2 18,8 22,3 13,2 50 72 94 1.004 1.019 1.027 SO 6,9 69,3 214,6
10/2018 8,8 16,1 21,1 19,1 15,3 22,7 29,3 20,5 45 74 89 1.003 1.018 1.029 S 7,1 53,7 154,8
Tots els anys disponibles
Temperatura (°C)
Humitat relativa (%)
Velocitat del vent i ràfega màxima (km/h)
Direcció del vent (°)
Pressió (hPa)
Precipitació (mm)
Nota sobre les dades: s'avisa a l'usuari de la provisionalitat i no oficialitat d'aquestes dades
Logo AVAMET blanc
Web allotjada a Sollutia
Llicència de Creative CommonsLa web d'AVAMET i els seus continguts estan subjectes a una llicència de
Reconeixement - No Comercial - Compartir igual
Últimes estacions: Xàbia - Alt de la Granadella (Soci), Villena - Sierra de Salinas (Soci), Sueca - Centre (Inforatge), Xàbia - La Plana (Soci), Banyeres de Mariola - Molí Sol (Soci), Villena - Villa Ventín (Soci), Benissa - Convent (Soci), - - -